createdAt,value
2022-10-05T00:01:15.876Z,9.57
2022-10-05T00:03:43.927Z,7.00
2022-10-05T00:06:13.251Z,6.30
2022-10-05T00:08:41.524Z,4.53
2022-10-05T00:11:10.754Z,14.80
2022-10-05T00:13:38.864Z,7.10
2022-10-05T00:16:14.153Z,9.40
2022-10-05T00:18:43.835Z,7.50
2022-10-05T00:21:19.518Z,4.28
2022-10-05T00:23:50.361Z,6.25
2022-10-05T00:26:21.928Z,7.22
2022-10-05T00:28:50.345Z,6.53
2022-10-05T00:31:22.181Z,8.02
2022-10-05T00:33:50.597Z,7.82
2022-10-05T00:36:18.954Z,6.55
2022-10-05T00:38:47.402Z,7.05
2022-10-05T00:41:19.980Z,7.45
2022-10-05T00:44:06.645Z,6.13
2022-10-05T00:46:45.659Z,6.85
2022-10-05T00:49:23.160Z,6.93
2022-10-05T00:51:59.632Z,6.07
2022-10-05T00:54:35.575Z,7.78
2022-10-05T00:57:26.084Z,6.75
2022-10-05T01:00:04.563Z,9.73
2022-10-05T01:02:43.967Z,9.95
2022-10-05T01:05:17.115Z,7.45
2022-10-05T01:07:52.040Z,9.70
2022-10-05T01:10:27.179Z,6.60
2022-10-05T01:13:04.319Z,7.05
2022-10-05T01:15:37.514Z,8.77
2022-10-05T01:18:13.566Z,6.28
2022-10-05T01:20:52.057Z,11.60
2022-10-05T01:23:38.357Z,6.07
2022-10-05T01:26:25.563Z,8.80
2022-10-05T01:29:03.890Z,8.45
2022-10-05T01:31:42.107Z,8.65
2022-10-05T01:34:15.105Z,8.00
2022-10-05T01:36:51.519Z,6.00
2022-10-05T01:39:28.753Z,8.68
2022-10-05T01:42:11.538Z,7.00
2022-10-05T01:44:47.660Z,9.40
2022-10-05T01:47:22.829Z,5.68
2022-10-05T01:50:01.215Z,5.50
2022-10-05T01:52:42.080Z,7.65
2022-10-05T01:55:19.853Z,6.55
2022-10-05T01:58:02.657Z,7.93
2022-10-05T02:00:38.250Z,5.60
2022-10-05T02:03:10.503Z,8.18
2022-10-05T02:05:44.863Z,6.05
2022-10-05T02:08:17.470Z,8.38
2022-10-05T02:10:54.083Z,15.55
2022-10-05T02:13:28.013Z,6.20
2022-10-05T02:16:02.291Z,6.40
2022-10-05T02:18:45.150Z,8.90
2022-10-05T02:21:13.521Z,8.68
2022-10-05T02:23:44.094Z,8.05
2022-10-05T02:26:13.779Z,10.80
2022-10-05T02:28:48.599Z,7.70
2022-10-05T02:31:22.296Z,7.85
2022-10-05T02:33:50.505Z,8.65
2022-10-05T02:36:23.431Z,8.55
2022-10-05T02:39:01.182Z,10.00
2022-10-05T02:41:43.391Z,11.35
2022-10-05T02:44:20.803Z,8.90
2022-10-05T02:46:59.330Z,8.07
2022-10-05T02:49:33.819Z,7.18
2022-10-05T02:52:10.681Z,6.97
2022-10-05T02:54:50.324Z,10.50
2022-10-05T02:57:29.109Z,7.60
2022-10-05T03:00:04.120Z,7.35
2022-10-05T03:02:42.506Z,7.13
2022-10-05T03:05:20.046Z,10.30
2022-10-05T03:07:56.762Z,6.78
2022-10-05T03:10:31.028Z,5.57
2022-10-05T03:13:06.495Z,5.85
2022-10-05T03:16:00.016Z,4.75
2022-10-05T03:18:41.814Z,6.95
2022-10-05T03:21:22.996Z,8.63
2022-10-05T03:24:08.450Z,11.07
2022-10-05T03:26:46.032Z,7.07
2022-10-05T03:29:26.866Z,9.02
2022-10-05T03:32:01.642Z,8.65
2022-10-05T03:34:37.290Z,6.97
2022-10-05T03:37:10.892Z,11.77
2022-10-05T03:39:43.059Z,7.78
2022-10-05T03:42:20.891Z,7.80
2022-10-05T03:44:56.609Z,9.77
2022-10-05T03:47:35.582Z,11.40
2022-10-05T03:50:29.931Z,12.50
2022-10-05T03:53:02.119Z,9.65
2022-10-05T03:55:36.615Z,8.30
2022-10-05T03:58:11.340Z,8.70
2022-10-05T04:00:43.096Z,8.07
2022-10-05T04:03:17.943Z,9.40
2022-10-05T04:05:51.621Z,9.25
2022-10-05T04:08:24.214Z,9.48
2022-10-05T04:10:55.521Z,5.90
2022-10-05T04:13:29.525Z,6.00
2022-10-05T04:16:02.217Z,6.43
2022-10-05T04:18:35.519Z,6.82
2022-10-05T04:21:11.003Z,6.78
2022-10-05T04:23:51.150Z,5.40
2022-10-05T04:26:23.487Z,7.07
2022-10-05T04:28:58.300Z,10.35
2022-10-05T04:31:48.154Z,9.35
2022-10-05T04:34:35.956Z,8.45
2022-10-05T04:37:09.575Z,9.65
2022-10-05T04:39:49.296Z,10.98
2022-10-05T04:42:24.015Z,13.93
2022-10-05T04:45:19.946Z,14.40
2022-10-05T04:48:05.808Z,17.33
2022-10-05T04:50:47.998Z,29.00
2022-10-05T04:56:00.611Z,18.35
2022-10-05T04:58:44.342Z,23.77
2022-10-05T05:01:29.657Z,21.95
2022-10-05T05:04:09.264Z,19.52
2022-10-05T05:06:42.334Z,20.58
2022-10-05T05:09:34.452Z,29.30
2022-10-05T05:12:19.391Z,22.20
2022-10-05T05:15:22.369Z,20.95
2022-10-05T05:18:06.583Z,22.25
2022-10-05T05:20:48.417Z,43.22
2022-10-05T05:23:25.022Z,37.65
2022-10-05T05:26:06.429Z,24.48
2022-10-05T05:28:43.510Z,30.85
2022-10-05T05:31:18.290Z,28.77
2022-10-05T05:33:56.151Z,24.08
2022-10-05T05:36:49.851Z,28.42
2022-10-05T05:39:25.297Z,43.97
2022-10-05T05:42:02.846Z,25.85
2022-10-05T05:44:38.914Z,29.08
2022-10-05T05:47:18.337Z,31.50
2022-10-05T05:50:05.585Z,22.25
2022-10-05T05:52:42.029Z,25.67
2022-10-05T05:55:18.358Z,31.33
2022-10-05T05:57:54.435Z,22.10
2022-10-05T06:00:25.909Z,20.67
2022-10-05T06:02:59.650Z,16.45
2022-10-05T06:05:33.160Z,20.08
2022-10-05T06:08:07.231Z,24.95
2022-10-05T06:10:43.299Z,15.30
2022-10-05T06:13:18.620Z,24.23
2022-10-05T06:15:51.980Z,29.17
2022-10-05T06:18:22.593Z,30.40
2022-10-05T06:20:55.066Z,22.15
2022-10-05T06:23:26.722Z,15.95
2022-10-05T06:26:16.243Z,29.90
2022-10-05T06:28:51.423Z,17.52
2022-10-05T06:31:32.230Z,16.85
2022-10-05T06:34:07.847Z,17.02
2022-10-05T06:36:44.643Z,16.15
2022-10-05T06:39:29.059Z,16.95
2022-10-05T06:42:13.795Z,16.25
2022-10-05T06:44:53.477Z,19.52
2022-10-05T06:47:31.120Z,16.63
2022-10-05T06:50:10.258Z,15.88
2022-10-05T06:52:51.759Z,16.85
2022-10-05T06:55:25.398Z,16.30
2022-10-05T06:58:03.866Z,16.17
2022-10-05T07:00:41.406Z,14.57
2022-10-05T07:03:23.916Z,18.40
2022-10-05T07:06:11.911Z,15.35
2022-10-05T07:08:53.536Z,15.65
2022-10-05T07:11:34.335Z,14.85
2022-10-05T07:14:23.949Z,18.83
2022-10-05T07:17:18.208Z,15.68
2022-10-05T07:19:56.061Z,17.55
2022-10-05T07:22:45.439Z,16.83
2022-10-05T07:25:17.876Z,17.30
2022-10-05T07:27:52.077Z,19.05
2022-10-05T07:30:20.910Z,20.88
2022-10-05T07:33:00.105Z,19.20
2022-10-05T07:35:58.045Z,18.13
2022-10-05T07:38:32.981Z,22.20
2022-10-05T07:41:07.405Z,19.83
2022-10-05T07:44:01.371Z,23.52
2022-10-05T07:46:40.359Z,21.60
2022-10-05T07:49:20.722Z,22.40
2022-10-05T07:51:52.443Z,24.20
2022-10-05T07:54:26.103Z,30.70
2022-10-05T07:57:00.671Z,30.98
2022-10-05T07:59:35.694Z,27.92
2022-10-05T08:02:12.147Z,31.17
2022-10-05T08:04:48.398Z,35.85
2022-10-05T08:07:18.777Z,47.83
2022-10-05T08:09:54.613Z,35.53
2022-10-05T08:12:33.275Z,54.15
2022-10-05T08:15:06.602Z,51.25
2022-10-05T08:17:42.546Z,41.80
2022-10-05T08:20:32.799Z,45.15
2022-10-05T08:23:06.139Z,42.17
2022-10-05T08:25:46.669Z,33.95
2022-10-05T08:28:23.154Z,37.75
2022-10-05T08:30:58.167Z,34.33
2022-10-05T08:33:31.783Z,34.28
2022-10-05T08:36:07.739Z,30.38
2022-10-05T08:38:36.446Z,26.25
2022-10-05T08:41:46.483Z,24.02
2022-10-05T08:44:55.196Z,29.92
2022-10-05T08:47:41.564Z,22.50
2022-10-05T08:50:20.435Z,28.17
2022-10-05T08:53:18.600Z,24.05
2022-10-05T08:55:59.213Z,24.42
2022-10-05T08:59:06.190Z,21.42
2022-10-05T09:01:48.761Z,25.30
2022-10-05T09:04:27.552Z,21.73
2022-10-05T09:07:16.565Z,22.42
2022-10-05T09:10:20.462Z,19.33
2022-10-05T09:13:18.576Z,21.98
2022-10-05T09:16:17.897Z,19.92
2022-10-05T09:19:19.355Z,23.15
2022-10-05T09:21:58.927Z,19.02
2022-10-05T09:24:47.689Z,22.40
2022-10-05T09:27:18.387Z,20.52
2022-10-05T09:30:19.379Z,18.73
2022-10-05T09:33:33.161Z,18.02
2022-10-05T09:36:24.459Z,18.08
2022-10-05T09:39:44.602Z,22.50
2022-10-05T09:42:36.611Z,16.85
2022-10-05T09:45:36.836Z,15.73
2022-10-05T09:48:25.995Z,17.58
2022-10-05T09:51:40.556Z,19.92
2022-10-05T09:54:52.223Z,16.98
2022-10-05T09:57:56.383Z,17.77
2022-10-05T10:00:29.319Z,14.85
2022-10-05T10:03:26.593Z,17.98
2022-10-05T10:06:13.430Z,18.17
2022-10-05T10:08:50.567Z,17.25
2022-10-05T10:11:34.008Z,17.97
2022-10-05T10:14:31.406Z,17.70
2022-10-05T10:17:13.804Z,19.45
2022-10-05T10:20:07.651Z,17.30
2022-10-05T10:22:58.496Z,17.35
2022-10-05T10:25:43.482Z,19.63
2022-10-05T10:28:37.723Z,18.05
2022-10-05T10:31:24.792Z,16.10
2022-10-05T10:34:15.071Z,16.42
2022-10-05T10:37:03.925Z,14.40
2022-10-05T10:39:45.184Z,16.02
2022-10-05T10:42:38.050Z,15.10
2022-10-05T10:45:38.692Z,15.23
2022-10-05T10:48:31.852Z,13.30
2022-10-05T10:51:15.759Z,13.70
2022-10-05T10:54:29.880Z,13.43
2022-10-05T10:57:06.263Z,11.65
2022-10-05T11:00:06.662Z,11.70
2022-10-05T11:03:01.399Z,13.63
2022-10-05T11:05:52.100Z,12.57
2022-10-05T11:08:47.475Z,17.10
2022-10-05T11:11:30.969Z,14.13
2022-10-05T11:14:37.364Z,14.80
2022-10-05T11:17:29.243Z,17.48
2022-10-05T11:20:09.280Z,12.55
2022-10-05T11:22:53.129Z,13.40
2022-10-05T11:25:35.015Z,13.35
2022-10-05T11:28:27.417Z,12.73
2022-10-05T11:31:23.990Z,13.23
2022-10-05T11:34:13.135Z,11.73
2022-10-05T11:37:20.816Z,11.65
2022-10-05T11:40:08.579Z,12.82
2022-10-05T11:43:20.639Z,13.25
2022-10-05T11:46:03.438Z,11.77
2022-10-05T11:48:49.641Z,10.32
2022-10-05T11:51:42.407Z,8.50
2022-10-05T11:54:28.596Z,8.98
2022-10-05T11:57:02.780Z,7.63
2022-10-05T11:59:44.295Z,6.70
2022-10-05T12:02:39.944Z,6.70
2022-10-05T12:05:18.243Z,7.93
2022-10-05T12:07:57.738Z,10.10
2022-10-05T12:10:35.800Z,6.47
2022-10-05T12:13:14.815Z,9.73
2022-10-05T12:15:54.308Z,7.40
2022-10-05T12:18:41.635Z,7.65
2022-10-05T12:21:18.491Z,5.90
2022-10-05T12:23:53.609Z,7.20
2022-10-05T12:26:27.276Z,6.95
2022-10-05T12:29:02.276Z,8.82
2022-10-05T12:31:41.914Z,5.88
2022-10-05T12:34:20.541Z,6.65
2022-10-05T12:37:10.051Z,5.72
2022-10-05T12:39:45.400Z,7.15
2022-10-05T12:42:26.493Z,8.35
2022-10-05T12:45:14.612Z,6.40
2022-10-05T12:48:00.099Z,8.18
2022-10-05T12:50:31.703Z,7.85
2022-10-05T12:53:25.571Z,7.32
2022-10-05T12:56:02.160Z,6.45
2022-10-05T12:58:38.693Z,6.82
2022-10-05T13:01:15.351Z,10.77
2022-10-05T13:03:53.786Z,8.93
2022-10-05T13:06:30.323Z,6.95
2022-10-05T13:09:10.138Z,8.38
2022-10-05T13:11:44.523Z,8.43
2022-10-05T13:17:19.643Z,8.15
2022-10-05T13:19:56.870Z,7.97
2022-10-05T13:22:35.863Z,7.03
2022-10-05T13:25:25.839Z,8.52
2022-10-05T13:28:10.106Z,6.88
2022-10-05T13:30:40.988Z,7.22
2022-10-05T13:33:18.097Z,7.63
2022-10-05T13:35:54.248Z,5.95
2022-10-05T13:38:34.184Z,6.13
2022-10-05T13:41:11.056Z,5.80
2022-10-05T13:43:43.962Z,4.68
2022-10-05T13:46:22.816Z,6.38
2022-10-05T13:49:00.627Z,4.97
2022-10-05T13:51:39.283Z,7.32
2022-10-05T13:54:16.409Z,6.43
2022-10-05T13:56:47.301Z,6.18
2022-10-05T13:59:23.164Z,6.47
2022-10-05T14:01:58.347Z,6.07
2022-10-05T14:04:29.914Z,5.13
2022-10-05T14:07:22.625Z,5.22
2022-10-05T14:09:51.206Z,3.97
2022-10-05T14:12:24.048Z,4.97
2022-10-05T14:14:56.935Z,5.97
2022-10-05T14:17:40.059Z,7.72
2022-10-05T14:20:23.091Z,3.78
2022-10-05T14:22:57.687Z,3.97
2022-10-05T14:25:25.980Z,4.93
2022-10-05T14:28:02.617Z,5.57
2022-10-05T14:30:32.158Z,4.13
2022-10-05T14:33:15.285Z,5.35
2022-10-05T14:35:49.243Z,3.00
2022-10-05T14:38:22.492Z,4.55
2022-10-05T14:41:16.360Z,2.88
2022-10-05T14:43:53.428Z,2.70
2022-10-05T14:46:29.130Z,4.35
2022-10-05T14:49:15.729Z,3.67
2022-10-05T14:51:44.276Z,3.20
2022-10-05T14:54:29.635Z,1.80
2022-10-05T14:57:08.013Z,4.95
2022-10-05T14:59:55.133Z,2.22
2022-10-05T15:02:53.483Z,3.58
2022-10-05T15:05:31.214Z,3.97
2022-10-05T15:08:08.671Z,2.10
2022-10-05T15:10:44.055Z,3.85
2022-10-05T15:13:17.697Z,3.40
2022-10-05T15:15:54.680Z,3.63
2022-10-05T15:18:34.834Z,4.60
2022-10-05T15:21:29.841Z,3.08
2022-10-05T15:24:03.442Z,5.68
2022-10-05T15:26:43.886Z,5.53
2022-10-05T15:29:38.181Z,3.88
2022-10-05T15:32:17.523Z,2.45
2022-10-05T15:34:55.664Z,3.20
2022-10-05T15:37:28.640Z,4.35
2022-10-05T15:39:59.059Z,3.28
2022-10-05T15:42:36.427Z,4.78
2022-10-05T15:45:11.556Z,3.00
2022-10-05T15:47:48.284Z,3.05
2022-10-05T15:50:23.559Z,2.60
2022-10-05T15:52:57.287Z,3.70
2022-10-05T15:55:36.315Z,4.20
2022-10-05T15:58:26.905Z,3.40
2022-10-05T16:01:04.089Z,2.92
2022-10-05T16:03:45.401Z,3.40
2022-10-05T16:06:47.943Z,3.00
2022-10-05T16:09:38.132Z,2.78
2022-10-05T16:15:17.663Z,3.20
2022-10-05T16:18:15.552Z,2.85
2022-10-05T16:20:51.175Z,2.67
2022-10-05T16:23:33.382Z,5.75
2022-10-05T16:26:16.404Z,3.88
2022-10-05T16:33:04.166Z,3.03
2022-10-05T16:35:44.328Z,4.53
2022-10-05T16:38:26.002Z,3.17
2022-10-05T16:41:10.086Z,3.40
2022-10-05T16:43:49.718Z,4.70
2022-10-05T16:46:27.901Z,3.60
2022-10-05T16:52:42.971Z,6.47
2022-10-05T16:55:15.066Z,4.55
2022-10-05T16:57:48.363Z,6.40
2022-10-05T17:00:21.871Z,6.63
2022-10-05T17:03:18.509Z,5.55
2022-10-05T17:06:23.279Z,3.45
2022-10-05T17:09:27.447Z,4.05
2022-10-05T17:12:04.914Z,5.75
2022-10-05T17:14:40.809Z,5.22
2022-10-05T17:17:32.087Z,4.25
2022-10-05T17:20:19.815Z,3.30
2022-10-05T17:22:52.401Z,5.07
2022-10-05T17:25:35.260Z,6.22
2022-10-05T17:28:21.114Z,5.53
2022-10-05T17:30:53.816Z,14.38
2022-10-05T17:33:25.837Z,12.88
2022-10-05T17:38:41.774Z,11.75
2022-10-05T17:41:30.348Z,11.18
2022-10-05T17:44:24.417Z,5.00
2022-10-05T17:46:55.153Z,6.15
2022-10-05T17:49:36.106Z,4.70
2022-10-05T17:52:38.404Z,4.35
2022-10-05T17:58:21.623Z,3.28
2022-10-05T18:01:26.763Z,15.32
2022-10-05T18:03:56.184Z,14.18
2022-10-05T18:06:44.892Z,9.18
2022-10-05T18:09:50.806Z,9.05
2022-10-05T18:12:41.595Z,5.95
2022-10-05T18:15:46.086Z,12.80
2022-10-05T18:18:34.234Z,8.32
2022-10-05T18:21:27.981Z,6.80
2022-10-05T18:24:18.306Z,4.90
2022-10-05T18:26:59.592Z,5.90
2022-10-05T18:30:06.427Z,5.30
2022-10-05T18:33:10.979Z,7.43
2022-10-05T18:35:52.448Z,3.30
2022-10-05T18:38:39.436Z,8.05
2022-10-05T18:41:19.878Z,3.75
2022-10-05T18:43:57.546Z,3.90
2022-10-05T18:46:36.627Z,4.03
2022-10-05T18:49:20.745Z,4.60
2022-10-05T18:51:57.086Z,3.75
2022-10-05T18:54:40.955Z,4.78
2022-10-05T18:57:44.026Z,3.88
2022-10-05T19:00:17.576Z,3.42
2022-10-05T19:02:51.938Z,3.47
2022-10-05T19:05:47.421Z,2.50
2022-10-05T19:08:29.371Z,3.53
2022-10-05T19:11:05.635Z,2.27
2022-10-05T19:13:43.247Z,4.57
2022-10-05T19:16:26.062Z,4.43
2022-10-05T19:19:10.191Z,3.85
2022-10-05T19:21:47.691Z,4.55
2022-10-05T19:24:32.421Z,4.25
2022-10-05T19:27:09.219Z,6.05
2022-10-05T19:29:56.631Z,4.82
2022-10-05T19:32:32.697Z,4.53
2022-10-05T19:35:13.852Z,6.75
2022-10-05T19:37:52.411Z,6.93
2022-10-05T19:40:29.195Z,5.82
2022-10-05T19:43:14.294Z,7.22
2022-10-05T19:45:46.959Z,6.55
2022-10-05T19:48:27.825Z,11.02
2022-10-05T19:50:58.477Z,12.27
2022-10-05T19:53:30.680Z,11.68
2022-10-05T19:56:17.048Z,14.95
2022-10-05T19:58:45.564Z,11.77
2022-10-05T20:01:24.095Z,9.88
2022-10-05T20:03:53.287Z,13.95
2022-10-05T20:06:22.768Z,6.65
2022-10-05T20:08:54.526Z,5.82
2022-10-05T20:11:27.232Z,9.77
2022-10-05T20:14:20.794Z,9.88
2022-10-05T20:17:07.118Z,10.48
2022-10-05T20:22:40.214Z,15.00
2022-10-05T20:25:30.628Z,8.63
2022-10-05T20:27:58.978Z,12.57
2022-10-05T20:30:28.617Z,8.80
2022-10-05T20:32:59.536Z,5.90
2022-10-05T20:35:30.599Z,3.80
2022-10-05T20:38:00.369Z,4.90
2022-10-05T20:40:31.106Z,4.43
2022-10-05T20:42:59.452Z,3.33
2022-10-05T20:45:27.575Z,2.67
2022-10-05T20:47:55.623Z,3.28
2022-10-05T20:50:23.923Z,3.00
2022-10-05T20:52:52.893Z,3.33
2022-10-05T20:55:20.957Z,3.67
2022-10-05T20:57:50.440Z,2.03
2022-10-05T21:00:18.622Z,3.85
2022-10-05T21:02:46.943Z,4.18
2022-10-05T21:05:15.519Z,4.45
2022-10-05T21:07:43.598Z,5.32
2022-10-05T21:10:14.156Z,3.78
2022-10-05T21:12:42.223Z,3.15
2022-10-05T21:15:12.384Z,4.47
2022-10-05T21:17:40.404Z,4.95
2022-10-05T21:20:11.555Z,3.70
2022-10-05T21:22:39.863Z,3.58
2022-10-05T21:25:08.993Z,3.72
2022-10-05T21:27:37.058Z,6.18
2022-10-05T21:30:05.622Z,2.92
2022-10-05T21:32:35.088Z,3.55
2022-10-05T21:35:03.216Z,4.35
2022-10-05T21:37:31.232Z,3.85
2022-10-05T21:40:11.206Z,3.03
2022-10-05T21:42:39.351Z,3.67
2022-10-05T21:45:08.627Z,4.35
2022-10-05T21:47:38.188Z,4.55
2022-10-05T21:50:08.570Z,4.03
2022-10-05T21:52:37.147Z,3.42
2022-10-05T21:55:06.525Z,2.80
2022-10-05T21:57:36.445Z,3.10
2022-10-05T22:00:05.620Z,3.10
2022-10-05T22:02:33.855Z,5.10
2022-10-05T22:05:03.276Z,2.70
2022-10-05T22:07:31.398Z,4.15
2022-10-05T22:09:59.489Z,3.50
2022-10-05T22:12:28.181Z,7.05
2022-10-05T22:14:56.211Z,5.38
2022-10-05T22:17:27.933Z,6.28
2022-10-05T22:19:56.813Z,4.93
2022-10-05T22:22:27.029Z,3.10
2022-10-05T22:24:55.491Z,3.15
2022-10-05T22:27:25.359Z,4.80
2022-10-05T22:29:53.831Z,3.50
2022-10-05T22:32:22.122Z,3.15
2022-10-05T22:34:50.407Z,3.95
2022-10-05T22:37:18.554Z,5.88
2022-10-05T22:39:48.290Z,2.97
2022-10-05T22:42:16.759Z,4.32
2022-10-05T22:44:44.835Z,3.67
2022-10-05T22:47:12.874Z,3.30
2022-10-05T22:49:40.926Z,3.92
2022-10-05T22:52:09.028Z,2.28
2022-10-05T22:54:37.571Z,5.13
2022-10-05T22:57:07.039Z,3.40
2022-10-05T22:59:35.087Z,3.50
2022-10-05T23:02:03.215Z,2.83
2022-10-05T23:04:31.393Z,4.05
2022-10-05T23:06:59.422Z,3.03
2022-10-05T23:09:27.463Z,2.83
2022-10-05T23:11:55.540Z,4.35
2022-10-05T23:14:48.897Z,2.42
2022-10-05T23:17:21.017Z,3.65
2022-10-05T23:19:49.066Z,4.80
2022-10-05T23:22:17.262Z,4.75
2022-10-05T23:24:45.346Z,6.00
2022-10-05T23:27:13.452Z,2.63
2022-10-05T23:29:42.911Z,4.28
2022-10-05T23:32:11.170Z,3.13
2022-10-05T23:34:42.007Z,4.35
2022-10-05T23:37:10.197Z,4.10
2022-10-05T23:39:38.244Z,2.35
2022-10-05T23:42:06.466Z,4.00
2022-10-05T23:44:34.499Z,4.40
2022-10-05T23:47:04.114Z,6.18
2022-10-05T23:49:32.152Z,3.88
2022-10-05T23:52:00.191Z,1.75
2022-10-05T23:54:28.226Z,5.00
2022-10-05T23:56:56.263Z,3.80
2022-10-05T23:59:24.351Z,4.78
